<?xml version="1.0" encoding="UTF-8" standalone="no" ?>
<gpx xmlns="http://www.topografix.com/GPX/1/1" xmlns:xsi="http://www.w3.org/2001/XMLSchema-instance" xsi:schemaLocation="http://www.topografix.com/GPX/1/1 http://www.topografix.com/GPX/1/1/gpx.xsd" version="1.1" creator="VisuGPX - https://www.visugpx.com">
  <metadata>
    <name>CM Sapeur Pompier / Coupe du Chasseron 2014</name>
    <desc><![CDATA[CM Sapeur Pompier / Coupe du Chasseron 2014
]]></desc>
  </metadata>
  <trk>
    <name><![CDATA[CM Sapeur Pompier / Coupe du Chasseron]]></name>
    <desc><![CDATA[CM Sapeur Pompier / Coupe du Chasseron]]></desc>
    <trkseg>
      <trkpt lat="46.82944" lon="6.53944">
        <ele>1193.1999511719</ele>
        <time>2014-06-05T16:18:48.000Z</time>
      </trkpt>
      <trkpt lat="46.82945" lon="6.53945">
        <ele>1193.1999511719</ele>
        <time>2014-06-05T16:18:50.000Z</time>
      </trkpt>
      <trkpt lat="46.82946" lon="6.53958">
        <ele>1193.4000244141</ele>
        <time>2014-06-05T16:18:54.000Z</time>
      </trkpt>
      <trkpt lat="46.82952" lon="6.53987">
        <ele>1193.8000488281</ele>
        <time>2014-06-05T16:19:00.000Z</time>
      </trkpt>
      <trkpt lat="46.82959" lon="6.54018">
        <ele>1193.5999755859</ele>
        <time>2014-06-05T16:19:07.000Z</time>
      </trkpt>
      <trkpt lat="46.82963" lon="6.54047">
        <ele>1193.4000244141</ele>
        <time>2014-06-05T16:19:14.000Z</time>
      </trkpt>
      <trkpt lat="46.82965" lon="6.54082">
        <ele>1193.4000244141</ele>
        <time>2014-06-05T16:19:23.000Z</time>
      </trkpt>
      <trkpt lat="46.82978" lon="6.54105">
        <ele>1194.5999755859</ele>
        <time>2014-06-05T16:19:30.000Z</time>
      </trkpt>
      <trkpt lat="46.82989" lon="6.54122">
        <ele>1195.5999755859</ele>
        <time>2014-06-05T16:19:36.000Z</time>
      </trkpt>
      <trkpt lat="46.83004" lon="6.54153">
        <ele>1197.4000244141</ele>
        <time>2014-06-05T16:19:44.000Z</time>
      </trkpt>
      <trkpt lat="46.83019" lon="6.54184">
        <ele>1197.8000488281</ele>
        <time>2014-06-05T16:19:52.000Z</time>
      </trkpt>
      <trkpt lat="46.83039" lon="6.54226">
        <ele>1199.5999755859</ele>
        <time>2014-06-05T16:20:02.000Z</time>
      </trkpt>
      <trkpt lat="46.83058" lon="6.54259">
        <ele>1200</ele>
        <time>2014-06-05T16:20:11.000Z</time>
      </trkpt>
      <trkpt lat="46.83078" lon="6.54282">
        <ele>1200.5999755859</ele>
        <time>2014-06-05T16:20:19.000Z</time>
      </trkpt>
      <trkpt lat="46.83099" lon="6.54304">
        <ele>1203.1999511719</ele>
        <time>2014-06-05T16:20:28.000Z</time>
      </trkpt>
      <trkpt lat="46.83117" lon="6.54323">
        <ele>1205.8000488281</ele>
        <time>2014-06-05T16:20:36.000Z</time>
      </trkpt>
      <trkpt lat="46.83133" lon="6.54335">
        <ele>1208.4000244141</ele>
        <time>2014-06-05T16:20:43.000Z</time>
      </trkpt>
      <trkpt lat="46.83148" lon="6.54343">
        <ele>1210.8000488281</ele>
        <time>2014-06-05T16:20:49.000Z</time>
      </trkpt>
      <trkpt lat="46.83166" lon="6.54351">
        <ele>1213.4000244141</ele>
        <time>2014-06-05T16:20:56.000Z</time>
      </trkpt>
      <trkpt lat="46.83173" lon="6.54355">
        <ele>1214.4000244141</ele>
        <time>2014-06-05T16:21:01.000Z</time>
      </trkpt>
      <trkpt lat="46.83185" lon="6.54361">
        <ele>1216.1999511719</ele>
        <time>2014-06-05T16:21:07.000Z</time>
      </trkpt>
      <trkpt lat="46.83195" lon="6.54364">
        <ele>1217.4000244141</ele>
        <time>2014-06-05T16:21:12.000Z</time>
      </trkpt>
      <trkpt lat="46.8321" lon="6.54373">
        <ele>1219.5999755859</ele>
        <time>2014-06-05T16:21:19.000Z</time>
      </trkpt>
      <trkpt lat="46.83224" lon="6.54379">
        <ele>1221.8000488281</ele>
        <time>2014-06-05T16:21:26.000Z</time>
      </trkpt>
      <trkpt lat="46.8324" lon="6.54386">
        <ele>1224.4000244141</ele>
        <time>2014-06-05T16:21:33.000Z</time>
      </trkpt>
      <trkpt lat="46.83257" lon="6.54397">
        <ele>1226.1999511719</ele>
        <time>2014-06-05T16:21:40.000Z</time>
      </trkpt>
      <trkpt lat="46.83268" lon="6.54405">
        <ele>1227.1999511719</ele>
        <time>2014-06-05T16:21:45.000Z</time>
      </trkpt>
      <trkpt lat="46.83279" lon="6.54409">
        <ele>1228.4000244141</ele>
        <time>2014-06-05T16:21:50.000Z</time>
      </trkpt>
      <trkpt lat="46.83286" lon="6.54413">
        <ele>1229.1999511719</ele>
        <time>2014-06-05T16:21:54.000Z</time>
      </trkpt>
      <trkpt lat="46.83291" lon="6.54413">
        <ele>1229.5999755859</ele>
        <time>2014-06-05T16:21:56.000Z</time>
      </trkpt>
      <trkpt lat="46.83297" lon="6.54403">
        <ele>1230.8000488281</ele>
        <time>2014-06-05T16:22:01.000Z</time>
      </trkpt>
      <trkpt lat="46.83294" lon="6.54383">
        <ele>1230.8000488281</ele>
        <time>2014-06-05T16:22:06.000Z</time>
      </trkpt>
      <trkpt lat="46.83293" lon="6.54366">
        <ele>1231.1999511719</ele>
        <time>2014-06-05T16:22:12.000Z</time>
      </trkpt>
      <trkpt lat="46.83292" lon="6.54364">
        <ele>1231.4000244141</ele>
        <time>2014-06-05T16:22:13.000Z</time>
      </trkpt>
      <trkpt lat="46.83291" lon="6.54341">
        <ele>1233</ele>
        <time>2014-06-05T16:22:21.000Z</time>
      </trkpt>
      <trkpt lat="46.8329" lon="6.54317">
        <ele>1234.8000488281</ele>
        <time>2014-06-05T16:22:28.000Z</time>
      </trkpt>
      <trkpt lat="46.83287" lon="6.54295">
        <ele>1235.5999755859</ele>
        <time>2014-06-05T16:22:36.000Z</time>
      </trkpt>
      <trkpt lat="46.83286" lon="6.54277">
        <ele>1236.5999755859</ele>
        <time>2014-06-05T16:22:42.000Z</time>
      </trkpt>
      <trkpt lat="46.83289" lon="6.54262">
        <ele>1239</ele>
        <time>2014-06-05T16:22:47.000Z</time>
      </trkpt>
      <trkpt lat="46.83295" lon="6.54246">
        <ele>1242.1999511719</ele>
        <time>2014-06-05T16:22:53.000Z</time>
      </trkpt>
      <trkpt lat="46.83296" lon="6.54245">
        <ele>1242.5999755859</ele>
        <time>2014-06-05T16:22:54.000Z</time>
      </trkpt>
      <trkpt lat="46.83303" lon="6.54254">
        <ele>1243.1999511719</ele>
        <time>2014-06-05T16:23:03.000Z</time>
      </trkpt>
      <trkpt lat="46.83305" lon="6.5426">
        <ele>1243</ele>
        <time>2014-06-05T16:23:09.000Z</time>
      </trkpt>
      <trkpt lat="46.83307" lon="6.54267">
        <ele>1242.8000488281</ele>
        <time>2014-06-05T16:23:15.000Z</time>
      </trkpt>
      <trkpt lat="46.83308" lon="6.54269">
        <ele>1242.5999755859</ele>
        <time>2014-06-05T16:23:16.000Z</time>
      </trkpt>
      <trkpt lat="46.83313" lon="6.54282">
        <ele>1242.8000488281</ele>
        <time>2014-06-05T16:23:22.000Z</time>
      </trkpt>
      <trkpt lat="46.83324" lon="6.54293">
        <ele>1244.1999511719</ele>
        <time>2014-06-05T16:23:28.000Z</time>
      </trkpt>
      <trkpt lat="46.83335" lon="6.54305">
        <ele>1245.4000244141</ele>
        <time>2014-06-05T16:23:34.000Z</time>
      </trkpt>
      <trkpt lat="46.83346" lon="6.54311">
        <ele>1247.5999755859</ele>
        <time>2014-06-05T16:23:40.000Z</time>
      </trkpt>
      <trkpt lat="46.83352" lon="6.54318">
        <ele>1248.4000244141</ele>
        <time>2014-06-05T16:23:45.000Z</time>
      </trkpt>
      <trkpt lat="46.83355" lon="6.54321">
        <ele>1248.8000488281</ele>
        <time>2014-06-05T16:23:47.000Z</time>
      </trkpt>
      <trkpt lat="46.83361" lon="6.54332">
        <ele>1248.8000488281</ele>
        <time>2014-06-05T16:23:52.000Z</time>
      </trkpt>
      <trkpt lat="46.83364" lon="6.54335">
        <ele>1249.1999511719</ele>
        <time>2014-06-05T16:23:54.000Z</time>
      </trkpt>
      <trkpt lat="46.83378" lon="6.5433">
        <ele>1253.4000244141</ele>
        <time>2014-06-05T16:24:03.000Z</time>
      </trkpt>
      <trkpt lat="46.83382" lon="6.54314">
        <ele>1256.5999755859</ele>
        <time>2014-06-05T16:24:09.000Z</time>
      </trkpt>
      <trkpt lat="46.83382" lon="6.54312">
        <ele>1256.8000488281</ele>
        <time>2014-06-05T16:24:10.000Z</time>
      </trkpt>
      <trkpt lat="46.8338" lon="6.54294">
        <ele>1258.1999511719</ele>
        <time>2014-06-05T16:24:18.000Z</time>
      </trkpt>
      <trkpt lat="46.83379" lon="6.54276">
        <ele>1259.8000488281</ele>
        <time>2014-06-05T16:24:25.000Z</time>
      </trkpt>
      <trkpt lat="46.8338" lon="6.54254">
        <ele>1262.1999511719</ele>
        <time>2014-06-05T16:24:32.000Z</time>
      </trkpt>
      <trkpt lat="46.83379" lon="6.54238">
        <ele>1263.8000488281</ele>
        <time>2014-06-05T16:24:38.000Z</time>
      </trkpt>
      <trkpt lat="46.83379" lon="6.54233">
        <ele>1264.4000244141</ele>
        <time>2014-06-05T16:24:41.000Z</time>
      </trkpt>
      <trkpt lat="46.83383" lon="6.54231">
        <ele>1265.8000488281</ele>
        <time>2014-06-05T16:24:47.000Z</time>
      </trkpt>
      <trkpt lat="46.8339" lon="6.54237">
        <ele>1266.8000488281</ele>
        <time>2014-06-05T16:24:52.000Z</time>
      </trkpt>
      <trkpt lat="46.83392" lon="6.54239">
        <ele>1267</ele>
        <time>2014-06-05T16:24:54.000Z</time>
      </trkpt>
      <trkpt lat="46.83403" lon="6.54245">
        <ele>1269.1999511719</ele>
        <time>2014-06-05T16:25:00.000Z</time>
      </trkpt>
      <trkpt lat="46.8341" lon="6.5425">
        <ele>1270.5999755859</ele>
        <time>2014-06-05T16:25:05.000Z</time>
      </trkpt>
      <trkpt lat="46.83413" lon="6.54244">
        <ele>1272.1999511719</ele>
        <time>2014-06-05T16:25:10.000Z</time>
      </trkpt>
      <trkpt lat="46.83411" lon="6.5424">
        <ele>1272</ele>
        <time>2014-06-05T16:25:15.000Z</time>
      </trkpt>
      <trkpt lat="46.83407" lon="6.54241">
        <ele>1270.5999755859</ele>
        <time>2014-06-05T16:25:28.000Z</time>
      </trkpt>
      <trkpt lat="46.83407" lon="6.54239">
        <ele>1271</ele>
        <time>2014-06-05T16:26:06.000Z</time>
      </trkpt>
      <trkpt lat="46.83407" lon="6.54228">
        <ele>1272</ele>
        <time>2014-06-05T16:26:12.000Z</time>
      </trkpt>
      <trkpt lat="46.83408" lon="6.5421">
        <ele>1273.5999755859</ele>
        <time>2014-06-05T16:26:18.000Z</time>
      </trkpt>
      <trkpt lat="46.83407" lon="6.54198">
        <ele>1274.4000244141</ele>
        <time>2014-06-05T16:26:22.000Z</time>
      </trkpt>
      <trkpt lat="46.83405" lon="6.54177">
        <ele>1275.8000488281</ele>
        <time>2014-06-05T16:26:29.000Z</time>
      </trkpt>
      <trkpt lat="46.83407" lon="6.54164">
        <ele>1277.4000244141</ele>
        <time>2014-06-05T16:26:34.000Z</time>
      </trkpt>
      <trkpt lat="46.83409" lon="6.54155">
        <ele>1278.4000244141</ele>
        <time>2014-06-05T16:26:38.000Z</time>
      </trkpt>
      <trkpt lat="46.83412" lon="6.54154">
        <ele>1279.1999511719</ele>
        <time>2014-06-05T16:26:44.000Z</time>
      </trkpt>
      <trkpt lat="46.83415" lon="6.54154">
        <ele>1279.8000488281</ele>
        <time>2014-06-05T16:26:48.000Z</time>
      </trkpt>
      <trkpt lat="46.83416" lon="6.54154">
        <ele>1280</ele>
        <time>2014-06-05T16:26:49.000Z</time>
      </trkpt>
      <trkpt lat="46.83422" lon="6.54159">
        <ele>1281.1999511719</ele>
        <time>2014-06-05T16:26:53.000Z</time>
      </trkpt>
      <trkpt lat="46.83431" lon="6.54166">
        <ele>1283</ele>
        <time>2014-06-05T16:27:00.000Z</time>
      </trkpt>
      <trkpt lat="46.8344" lon="6.54179">
        <ele>1284.5999755859</ele>
        <time>2014-06-05T16:27:06.000Z</time>
      </trkpt>
      <trkpt lat="46.83445" lon="6.54196">
        <ele>1285</ele>
        <time>2014-06-05T16:27:13.000Z</time>
      </trkpt>
      <trkpt lat="46.8345" lon="6.54205">
        <ele>1285.5999755859</ele>
        <time>2014-06-05T16:27:18.000Z</time>
      </trkpt>
      <trkpt lat="46.83455" lon="6.54219">
        <ele>1286</ele>
        <time>2014-06-05T16:27:23.000Z</time>
      </trkpt>
      <trkpt lat="46.83462" lon="6.54238">
        <ele>1286.1999511719</ele>
        <time>2014-06-05T16:27:28.000Z</time>
      </trkpt>
      <trkpt lat="46.83473" lon="6.5426">
        <ele>1287.4000244141</ele>
        <time>2014-06-05T16:27:35.000Z</time>
      </trkpt>
      <trkpt lat="46.83482" lon="6.54274">
        <ele>1288.8000488281</ele>
        <time>2014-06-05T16:27:41.000Z</time>
      </trkpt>
      <trkpt lat="46.83491" lon="6.54288">
        <ele>1289.8000488281</ele>
        <time>2014-06-05T16:27:47.000Z</time>
      </trkpt>
      <trkpt lat="46.83496" lon="6.54302">
        <ele>1289.1999511719</ele>
        <time>2014-06-05T16:27:52.000Z</time>
      </trkpt>
      <trkpt lat="46.83504" lon="6.54319">
        <ele>1289</ele>
        <time>2014-06-05T16:27:58.000Z</time>
      </trkpt>
      <trkpt lat="46.83516" lon="6.54332">
        <ele>1289.4000244141</ele>
        <time>2014-06-05T16:28:05.000Z</time>
      </trkpt>
      <trkpt lat="46.83526" lon="6.54346">
        <ele>1289.1999511719</ele>
        <time>2014-06-05T16:28:10.000Z</time>
      </trkpt>
      <trkpt lat="46.83536" lon="6.54352">
        <ele>1290</ele>
        <time>2014-06-05T16:28:16.000Z</time>
      </trkpt>
      <trkpt lat="46.83543" lon="6.54353">
        <ele>1291</ele>
        <time>2014-06-05T16:28:19.000Z</time>
      </trkpt>
      <trkpt lat="46.83547" lon="6.54353">
        <ele>1291.5999755859</ele>
        <time>2014-06-05T16:28:21.000Z</time>
      </trkpt>
      <trkpt lat="46.83555" lon="6.54358">
        <ele>1292.1999511719</ele>
        <time>2014-06-05T16:28:24.000Z</time>
      </trkpt>
      <trkpt lat="46.83568" lon="6.54359">
        <ele>1293.8000488281</ele>
        <time>2014-06-05T16:28:29.000Z</time>
      </trkpt>
      <trkpt lat="46.83572" lon="6.5436">
        <ele>1294.4000244141</ele>
        <time>2014-06-05T16:28:31.000Z</time>
      </trkpt>
      <trkpt lat="46.8359" lon="6.54366">
        <ele>1296.5999755859</ele>
        <time>2014-06-05T16:28:37.000Z</time>
      </trkpt>
      <trkpt lat="46.83596" lon="6.5437">
        <ele>1297.1999511719</ele>
        <time>2014-06-05T16:28:40.000Z</time>
      </trkpt>
      <trkpt lat="46.83604" lon="6.54384">
        <ele>1297.1999511719</ele>
        <time>2014-06-05T16:28:45.000Z</time>
      </trkpt>
      <trkpt lat="46.83618" lon="6.54396">
        <ele>1298.1999511719</ele>
        <time>2014-06-05T16:28:52.000Z</time>
      </trkpt>
      <trkpt lat="46.83631" lon="6.5441">
        <ele>1299.4000244141</ele>
        <time>2014-06-05T16:28:58.000Z</time>
      </trkpt>
      <trkpt lat="46.83645" lon="6.54428">
        <ele>1301.4000244141</ele>
        <time>2014-06-05T16:29:04.000Z</time>
      </trkpt>
      <trkpt lat="46.83654" lon="6.54437">
        <ele>1302.4000244141</ele>
        <time>2014-06-05T16:29:08.000Z</time>
      </trkpt>
      <trkpt lat="46.83664" lon="6.54448">
        <ele>1303.4000244141</ele>
        <time>2014-06-05T16:29:13.000Z</time>
      </trkpt>
      <trkpt lat="46.83677" lon="6.54457">
        <ele>1304.5999755859</ele>
        <time>2014-06-05T16:29:18.000Z</time>
      </trkpt>
      <trkpt lat="46.8368" lon="6.5446">
        <ele>1304.8000488281</ele>
        <time>2014-06-05T16:29:19.000Z</time>
      </trkpt>
      <trkpt lat="46.8369" lon="6.54471">
        <ele>1305.5999755859</ele>
        <time>2014-06-05T16:29:25.000Z</time>
      </trkpt>
      <trkpt lat="46.83702" lon="6.54485">
        <ele>1306.5999755859</ele>
        <time>2014-06-05T16:29:30.000Z</time>
      </trkpt>
      <trkpt lat="46.83716" lon="6.54495">
        <ele>1307.4000244141</ele>
        <time>2014-06-05T16:29:36.000Z</time>
      </trkpt>
      <trkpt lat="46.83728" lon="6.54509">
        <ele>1308</ele>
        <time>2014-06-05T16:29:43.000Z</time>
      </trkpt>
      <trkpt lat="46.83738" lon="6.54523">
        <ele>1308.1999511719</ele>
        <time>2014-06-05T16:29:49.000Z</time>
      </trkpt>
      <trkpt lat="46.8375" lon="6.54529">
        <ele>1308.4000244141</ele>
        <time>2014-06-05T16:29:54.000Z</time>
      </trkpt>
      <trkpt lat="46.83771" lon="6.54539">
        <ele>1309</ele>
        <time>2014-06-05T16:30:01.000Z</time>
      </trkpt>
      <trkpt lat="46.83789" lon="6.54546">
        <ele>1309.5999755859</ele>
        <time>2014-06-05T16:30:08.000Z</time>
      </trkpt>
      <trkpt lat="46.83809" lon="6.54556">
        <ele>1310</ele>
        <time>2014-06-05T16:30:15.000Z</time>
      </trkpt>
      <trkpt lat="46.83821" lon="6.54566">
        <ele>1310</ele>
        <time>2014-06-05T16:30:21.000Z</time>
      </trkpt>
      <trkpt lat="46.8383" lon="6.54581">
        <ele>1310.4000244141</ele>
        <time>2014-06-05T16:30:27.000Z</time>
      </trkpt>
      <trkpt lat="46.83836" lon="6.54594">
        <ele>1310.8000488281</ele>
        <time>2014-06-05T16:30:31.000Z</time>
      </trkpt>
      <trkpt lat="46.83848" lon="6.54617">
        <ele>1311.1999511719</ele>
        <time>2014-06-05T16:30:38.000Z</time>
      </trkpt>
      <trkpt lat="46.83862" lon="6.54644">
        <ele>1312</ele>
        <time>2014-06-05T16:30:46.000Z</time>
      </trkpt>
      <trkpt lat="46.83871" lon="6.54657">
        <ele>1313</ele>
        <time>2014-06-05T16:30:51.000Z</time>
      </trkpt>
      <trkpt lat="46.83882" lon="6.54672">
        <ele>1314.5999755859</ele>
        <time>2014-06-05T16:30:56.000Z</time>
      </trkpt>
      <trkpt lat="46.83892" lon="6.5468">
        <ele>1316</ele>
        <time>2014-06-05T16:31:01.000Z</time>
      </trkpt>
      <trkpt lat="46.83901" lon="6.54691">
        <ele>1317.4000244141</ele>
        <time>2014-06-05T16:31:07.000Z</time>
      </trkpt>
      <trkpt lat="46.83905" lon="6.54697">
        <ele>1318</ele>
        <time>2014-06-05T16:31:10.000Z</time>
      </trkpt>
      <trkpt lat="46.83918" lon="6.54705">
        <ele>1319.8000488281</ele>
        <time>2014-06-05T16:31:16.000Z</time>
      </trkpt>
      <trkpt lat="46.8393" lon="6.5472">
        <ele>1322</ele>
        <time>2014-06-05T16:31:23.000Z</time>
      </trkpt>
      <trkpt lat="46.83938" lon="6.5473">
        <ele>1323.1999511719</ele>
        <time>2014-06-05T16:31:29.000Z</time>
      </trkpt>
      <trkpt lat="46.83951" lon="6.54738">
        <ele>1325.1999511719</ele>
        <time>2014-06-05T16:31:37.000Z</time>
      </trkpt>
      <trkpt lat="46.8396" lon="6.54743">
        <ele>1326.5999755859</ele>
        <time>2014-06-05T16:31:42.000Z</time>
      </trkpt>
      <trkpt lat="46.8397" lon="6.54745">
        <ele>1328</ele>
        <time>2014-06-05T16:31:48.000Z</time>
      </trkpt>
      <trkpt lat="46.83978" lon="6.5475">
        <ele>1329.1999511719</ele>
        <time>2014-06-05T16:31:53.000Z</time>
      </trkpt>
      <trkpt lat="46.83987" lon="6.54753">
        <ele>1330.5999755859</ele>
        <time>2014-06-05T16:31:59.000Z</time>
      </trkpt>
      <trkpt lat="46.83991" lon="6.54752">
        <ele>1331</ele>
        <time>2014-06-05T16:32:01.000Z</time>
      </trkpt>
      <trkpt lat="46.84" lon="6.54756">
        <ele>1332</ele>
        <time>2014-06-05T16:32:07.000Z</time>
      </trkpt>
      <trkpt lat="46.84004" lon="6.54758">
        <ele>1332.5999755859</ele>
        <time>2014-06-05T16:32:09.000Z</time>
      </trkpt>
      <trkpt lat="46.84017" lon="6.54761">
        <ele>1334</ele>
        <time>2014-06-05T16:32:16.000Z</time>
      </trkpt>
      <trkpt lat="46.8403" lon="6.54765">
        <ele>1335.5999755859</ele>
        <time>2014-06-05T16:32:23.000Z</time>
      </trkpt>
      <trkpt lat="46.84033" lon="6.54765">
        <ele>1335.8000488281</ele>
        <time>2014-06-05T16:32:28.000Z</time>
      </trkpt>
      <trkpt lat="46.84036" lon="6.54765">
        <ele>1336.1999511719</ele>
        <time>2014-06-05T16:32:33.000Z</time>
      </trkpt>
      <trkpt lat="46.84039" lon="6.54764">
        <ele>1336.4000244141</ele>
        <time>2014-06-05T16:32:37.000Z</time>
      </trkpt>
      <trkpt lat="46.84046" lon="6.54773">
        <ele>1337.5999755859</ele>
        <time>2014-06-05T16:32:47.000Z</time>
      </trkpt>
      <trkpt lat="46.84057" lon="6.5478">
        <ele>1339</ele>
        <time>2014-06-05T16:32:54.000Z</time>
      </trkpt>
      <trkpt lat="46.84062" lon="6.54785">
        <ele>1339.8000488281</ele>
        <time>2014-06-05T16:33:00.000Z</time>
      </trkpt>
      <trkpt lat="46.84067" lon="6.54791">
        <ele>1340.4000244141</ele>
        <time>2014-06-05T16:33:05.000Z</time>
      </trkpt>
      <trkpt lat="46.84075" lon="6.54799">
        <ele>1341.5999755859</ele>
        <time>2014-06-05T16:33:11.000Z</time>
      </trkpt>
      <trkpt lat="46.8408" lon="6.54807">
        <ele>1342.1999511719</ele>
        <time>2014-06-05T16:33:17.000Z</time>
      </trkpt>
      <trkpt lat="46.84083" lon="6.54808">
        <ele>1342.4000244141</ele>
        <time>2014-06-05T16:33:22.000Z</time>
      </trkpt>
      <trkpt lat="46.84083" lon="6.54811">
        <ele>1342.5999755859</ele>
        <time>2014-06-05T16:33:26.000Z</time>
      </trkpt>
      <trkpt lat="46.84087" lon="6.54809">
        <ele>1342.8000488281</ele>
        <time>2014-06-05T16:33:39.000Z</time>
      </trkpt>
      <trkpt lat="46.84092" lon="6.54808">
        <ele>1343</ele>
        <time>2014-06-05T16:33:50.000Z</time>
      </trkpt>
      <trkpt lat="46.84094" lon="6.5481">
        <ele>1343.1999511719</ele>
        <time>2014-06-05T16:33:52.000Z</time>
      </trkpt>
      <trkpt lat="46.84098" lon="6.54823">
        <ele>1343.5999755859</ele>
        <time>2014-06-05T16:33:59.000Z</time>
      </trkpt>
      <trkpt lat="46.84098" lon="6.54823">
        <ele>1343.8000488281</ele>
        <time>2014-06-05T16:34:00.000Z</time>
      </trkpt>
      <trkpt lat="46.84099" lon="6.54826">
        <ele>1343.8000488281</ele>
        <time>2014-06-05T16:34:02.000Z</time>
      </trkpt>
      <trkpt lat="46.84104" lon="6.54835">
        <ele>1343.8000488281</ele>
        <time>2014-06-05T16:34:08.000Z</time>
      </trkpt>
      <trkpt lat="46.84109" lon="6.54857">
        <ele>1343.5999755859</ele>
        <time>2014-06-05T16:34:13.000Z</time>
      </trkpt>
      <trkpt lat="46.84117" lon="6.54886">
        <ele>1342.4000244141</ele>
        <time>2014-06-05T16:34:17.000Z</time>
      </trkpt>
      <trkpt lat="46.84118" lon="6.54903">
        <ele>1341.4000244141</ele>
        <time>2014-06-05T16:34:19.000Z</time>
      </trkpt>
      <trkpt lat="46.84115" lon="6.54933">
        <ele>1341.1999511719</ele>
        <time>2014-06-05T16:34:22.000Z</time>
      </trkpt>
      <trkpt lat="46.8411" lon="6.54935">
        <ele>1340.4000244141</ele>
        <time>2014-06-05T16:34:26.000Z</time>
      </trkpt>
      <trkpt lat="46.84114" lon="6.54945">
        <ele>1340.8000488281</ele>
        <time>2014-06-05T16:34:57.000Z</time>
      </trkpt>
      <trkpt lat="46.84108" lon="6.54965">
        <ele>1337.5999755859</ele>
        <time>2014-06-05T16:35:01.000Z</time>
      </trkpt>
      <trkpt lat="46.84108" lon="6.55">
        <ele>1335</ele>
        <time>2014-06-05T16:35:05.000Z</time>
      </trkpt>
      <trkpt lat="46.84111" lon="6.55005">
        <ele>1335.4000244141</ele>
        <time>2014-06-05T16:35:06.000Z</time>
      </trkpt>
      <trkpt lat="46.84124" lon="6.55025">
        <ele>1337.1999511719</ele>
        <time>2014-06-05T16:35:11.000Z</time>
      </trkpt>
      <trkpt lat="46.84128" lon="6.55034">
        <ele>1337.5999755859</ele>
        <time>2014-06-05T16:35:13.000Z</time>
      </trkpt>
      <trkpt lat="46.84131" lon="6.55047">
        <ele>1337.4000244141</ele>
        <time>2014-06-05T16:35:15.000Z</time>
      </trkpt>
      <trkpt lat="46.84135" lon="6.55073">
        <ele>1336.4000244141</ele>
        <time>2014-06-05T16:35:20.000Z</time>
      </trkpt>
      <trkpt lat="46.84135" lon="6.55088">
        <ele>1334</ele>
        <time>2014-06-05T16:35:25.000Z</time>
      </trkpt>
      <trkpt lat="46.84134" lon="6.55097">
        <ele>1332.5999755859</ele>
        <time>2014-06-05T16:35:32.000Z</time>
      </trkpt>
      <trkpt lat="46.84141" lon="6.55112">
        <ele>1332</ele>
        <time>2014-06-05T16:35:37.000Z</time>
      </trkpt>
      <trkpt lat="46.84143" lon="6.55116">
        <ele>1332</ele>
        <time>2014-06-05T16:35:38.000Z</time>
      </trkpt>
      <trkpt lat="46.84151" lon="6.55136">
        <ele>1331</ele>
        <time>2014-06-05T16:35:44.000Z</time>
      </trkpt>
      <trkpt lat="46.84156" lon="6.55143">
        <ele>1331.1999511719</ele>
        <time>2014-06-05T16:35:47.000Z</time>
      </trkpt>
      <trkpt lat="46.84165" lon="6.55167">
        <ele>1329.1999511719</ele>
        <time>2014-06-05T16:35:52.000Z</time>
      </trkpt>
      <trkpt lat="46.84174" lon="6.55188">
        <ele>1327.8000488281</ele>
        <time>2014-06-05T16:35:57.000Z</time>
      </trkpt>
      <trkpt lat="46.84189" lon="6.55196">
        <ele>1329.1999511719</ele>
        <time>2014-06-05T16:36:02.000Z</time>
      </trkpt>
      <trkpt lat="46.84205" lon="6.55211">
        <ele>1330</ele>
        <time>2014-06-05T16:36:08.000Z</time>
      </trkpt>
      <trkpt lat="46.84214" lon="6.55228">
        <ele>1329.1999511719</ele>
        <time>2014-06-05T16:36:12.000Z</time>
      </trkpt>
      <trkpt lat="46.84227" lon="6.55239">
        <ele>1330</ele>
        <time>2014-06-05T16:36:16.000Z</time>
      </trkpt>
      <trkpt lat="46.84238" lon="6.55255">
        <ele>1329.1999511719</ele>
        <time>2014-06-05T16:36:20.000Z</time>
      </trkpt>
      <trkpt lat="46.84246" lon="6.55261">
        <ele>1328.5999755859</ele>
        <time>2014-06-05T16:36:22.000Z</time>
      </trkpt>
      <trkpt lat="46.84263" lon="6.55259">
        <ele>1329.1999511719</ele>
        <time>2014-06-05T16:36:28.000Z</time>
      </trkpt>
      <trkpt lat="46.84271" lon="6.55259">
        <ele>1329</ele>
        <time>2014-06-05T16:36:31.000Z</time>
      </trkpt>
      <trkpt lat="46.84287" lon="6.55272">
        <ele>1326.8000488281</ele>
        <time>2014-06-05T16:36:37.000Z</time>
      </trkpt>
      <trkpt lat="46.84305" lon="6.55276">
        <ele>1325.5999755859</ele>
        <time>2014-06-05T16:36:42.000Z</time>
      </trkpt>
      <trkpt lat="46.84322" lon="6.55279">
        <ele>1324.5999755859</ele>
        <time>2014-06-05T16:36:46.000Z</time>
      </trkpt>
      <trkpt lat="46.84334" lon="6.55286">
        <ele>1323.5999755859</ele>
        <time>2014-06-05T16:36:50.000Z</time>
      </trkpt>
      <trkpt lat="46.84347" lon="6.55298">
        <ele>1322</ele>
        <time>2014-06-05T16:36:54.000Z</time>
      </trkpt>
      <trkpt lat="46.84357" lon="6.55315">
        <ele>1320</ele>
        <time>2014-06-05T16:36:58.000Z</time>
      </trkpt>
      <trkpt lat="46.8436" lon="6.55321">
        <ele>1319.1999511719</ele>
        <time>2014-06-05T16:36:59.000Z</time>
      </trkpt>
      <trkpt lat="46.84368" lon="6.55346">
        <ele>1317</ele>
        <time>2014-06-05T16:37:03.000Z</time>
      </trkpt>
      <trkpt lat="46.84372" lon="6.55363">
        <ele>1315.5999755859</ele>
        <time>2014-06-05T16:37:06.000Z</time>
      </trkpt>
      <trkpt lat="46.84374" lon="6.55372">
        <ele>1314.5999755859</ele>
        <time>2014-06-05T16:37:08.000Z</time>
      </trkpt>
      <trkpt lat="46.84377" lon="6.55391">
        <ele>1311.8000488281</ele>
        <time>2014-06-05T16:37:13.000Z</time>
      </trkpt>
      <trkpt lat="46.8438" lon="6.55402">
        <ele>1310.4000244141</ele>
        <time>2014-06-05T16:37:15.000Z</time>
      </trkpt>
      <trkpt lat="46.84391" lon="6.55418">
        <ele>1309.4000244141</ele>
        <time>2014-06-05T16:37:20.000Z</time>
      </trkpt>
      <trkpt lat="46.84404" lon="6.55428">
        <ele>1309</ele>
        <time>2014-06-05T16:37:25.000Z</time>
      </trkpt>
      <trkpt lat="46.84409" lon="6.55434">
        <ele>1309</ele>
        <time>2014-06-05T16:37:29.000Z</time>
      </trkpt>
      <trkpt lat="46.8441" lon="6.55441">
        <ele>1308.5999755859</ele>
        <time>2014-06-05T16:37:36.000Z</time>
      </trkpt>
      <trkpt lat="46.84421" lon="6.55419">
        <ele>1312.8000488281</ele>
        <time>2014-06-05T16:39:00.000Z</time>
      </trkpt>
      <trkpt lat="46.84422" lon="6.55437">
        <ele>1311.1999511719</ele>
        <time>2014-06-05T16:39:05.000Z</time>
      </trkpt>
      <trkpt lat="46.84418" lon="6.55447">
        <ele>1309.4000244141</ele>
        <time>2014-06-05T16:39:07.000Z</time>
      </trkpt>
      <trkpt lat="46.84414" lon="6.55456">
        <ele>1307.5999755859</ele>
        <time>2014-06-05T16:39:12.000Z</time>
      </trkpt>
      <trkpt lat="46.8441" lon="6.55468">
        <ele>1305.5999755859</ele>
        <time>2014-06-05T16:39:19.000Z</time>
      </trkpt>
      <trkpt lat="46.84405" lon="6.55482">
        <ele>1303.1999511719</ele>
        <time>2014-06-05T16:39:21.000Z</time>
      </trkpt>
      <trkpt lat="46.8438" lon="6.55532">
        <ele>1293.4000244141</ele>
        <time>2014-06-05T16:39:27.000Z</time>
      </trkpt>
      <trkpt lat="46.84375" lon="6.55539">
        <ele>1292</ele>
        <time>2014-06-05T16:39:28.000Z</time>
      </trkpt>
      <trkpt lat="46.84378" lon="6.55577">
        <ele>1286.8000488281</ele>
        <time>2014-06-05T16:39:32.000Z</time>
      </trkpt>
      <trkpt lat="46.84379" lon="6.55616">
        <ele>1281.8000488281</ele>
        <time>2014-06-05T16:39:35.000Z</time>
      </trkpt>
      <trkpt lat="46.84387" lon="6.55656">
        <ele>1278</ele>
        <time>2014-06-05T16:39:40.000Z</time>
      </trkpt>
      <trkpt lat="46.84387" lon="6.55663">
        <ele>1276.8000488281</ele>
        <time>2014-06-05T16:39:41.000Z</time>
      </trkpt>
      <trkpt lat="46.84387" lon="6.55701">
        <ele>1271.4000244141</ele>
        <time>2014-06-05T16:39:46.000Z</time>
      </trkpt>
      <trkpt lat="46.84391" lon="6.55724">
        <ele>1269</ele>
        <time>2014-06-05T16:39:50.000Z</time>
      </trkpt>
      <trkpt lat="46.84396" lon="6.5573">
        <ele>1269</ele>
        <time>2014-06-05T16:39:51.000Z</time>
      </trkpt>
      <trkpt lat="46.84414" lon="6.55764">
        <ele>1266.8000488281</ele>
        <time>2014-06-05T16:39:56.000Z</time>
      </trkpt>
      <trkpt lat="46.84419" lon="6.55776">
        <ele>1265.5999755859</ele>
        <time>2014-06-05T16:39:58.000Z</time>
      </trkpt>
      <trkpt lat="46.84425" lon="6.55803">
        <ele>1262.5999755859</ele>
        <time>2014-06-05T16:40:03.000Z</time>
      </trkpt>
      <trkpt lat="46.84431" lon="6.55818">
        <ele>1261.1999511719</ele>
        <time>2014-06-05T16:40:06.000Z</time>
      </trkpt>
      <trkpt lat="46.84438" lon="6.55841">
        <ele>1257.1999511719</ele>
        <time>2014-06-05T16:40:10.000Z</time>
      </trkpt>
      <trkpt lat="46.84441" lon="6.55869">
        <ele>1252.4000244141</ele>
        <time>2014-06-05T16:40:15.000Z</time>
      </trkpt>
      <trkpt lat="46.84434" lon="6.55864">
        <ele>1252.4000244141</ele>
        <time>2014-06-05T16:40:18.000Z</time>
      </trkpt>
      <trkpt lat="46.84429" lon="6.55854">
        <ele>1253.4000244141</ele>
        <time>2014-06-05T16:40:20.000Z</time>
      </trkpt>
      <trkpt lat="46.84407" lon="6.55821">
        <ele>1256.5999755859</ele>
        <time>2014-06-05T16:40:27.000Z</time>
      </trkpt>
      <trkpt lat="46.84398" lon="6.55804">
        <ele>1257.8000488281</ele>
        <time>2014-06-05T16:40:30.000Z</time>
      </trkpt>
      <trkpt lat="46.84375" lon="6.55769">
        <ele>1259.4000244141</ele>
        <time>2014-06-05T16:40:36.000Z</time>
      </trkpt>
      <trkpt lat="46.84357" lon="6.55748">
        <ele>1259.5999755859</ele>
        <time>2014-06-05T16:40:41.000Z</time>
      </trkpt>
      <trkpt lat="46.8434" lon="6.55721">
        <ele>1260.8000488281</ele>
        <time>2014-06-05T16:40:47.000Z</time>
      </trkpt>
      <trkpt lat="46.8433" lon="6.55712">
        <ele>1260.1999511719</ele>
        <time>2014-06-05T16:40:50.000Z</time>
      </trkpt>
      <trkpt lat="46.84315" lon="6.55694">
        <ele>1260</ele>
        <time>2014-06-05T16:40:54.000Z</time>
      </trkpt>
      <trkpt lat="46.84301" lon="6.55674">
        <ele>1260.1999511719</ele>
        <time>2014-06-05T16:40:58.000Z</time>
      </trkpt>
      <trkpt lat="46.84278" lon="6.55648">
        <ele>1259.5999755859</ele>
        <time>2014-06-05T16:41:03.000Z</time>
      </trkpt>
      <trkpt lat="46.84273" lon="6.55641">
        <ele>1259.8000488281</ele>
        <time>2014-06-05T16:41:04.000Z</time>
      </trkpt>
      <trkpt lat="46.84256" lon="6.55632">
        <ele>1258</ele>
        <time>2014-06-05T16:41:07.000Z</time>
      </trkpt>
      <trkpt lat="46.84239" lon="6.55627">
        <ele>1255.5999755859</ele>
        <time>2014-06-05T16:41:12.000Z</time>
      </trkpt>
      <trkpt lat="46.84225" lon="6.55631">
        <ele>1252.5999755859</ele>
        <time>2014-06-05T16:41:16.000Z</time>
      </trkpt>
      <trkpt lat="46.84208" lon="6.55634">
        <ele>1249</ele>
        <time>2014-06-05T16:41:21.000Z</time>
      </trkpt>
      <trkpt lat="46.84208" lon="6.55638">
        <ele>1248.1999511719</ele>
        <time>2014-06-05T16:41:27.000Z</time>
      </trkpt>
      <trkpt lat="46.8421" lon="6.55637">
        <ele>1248.8000488281</ele>
        <time>2014-06-05T16:41:29.000Z</time>
      </trkpt>
      <trkpt lat="46.84214" lon="6.55637">
        <ele>1249.8000488281</ele>
        <time>2014-06-05T16:41:36.000Z</time>
      </trkpt>
      <trkpt lat="46.84214" lon="6.5564">
        <ele>1249</ele>
        <time>2014-06-05T16:41:41.000Z</time>
      </trkpt>
      <trkpt lat="46.84211" lon="6.55642">
        <ele>1248</ele>
        <time>2014-06-05T16:41:46.000Z</time>
      </trkpt>
      <trkpt lat="46.8421" lon="6.55643">
        <ele>1247.8000488281</ele>
        <time>2014-06-05T16:41:47.000Z</time>
      </trkpt>
      <trkpt lat="46.84206" lon="6.55643">
        <ele>1246.8000488281</ele>
        <time>2014-06-05T16:41:55.000Z</time>
      </trkpt>
      <trkpt lat="46.84205" lon="6.55643">
        <ele>1246.4000244141</ele>
        <time>2014-06-05T16:41:58.000Z</time>
      </trkpt>
      <trkpt lat="46.84186" lon="6.5564">
        <ele>1243.1999511719</ele>
        <time>2014-06-05T16:42:03.000Z</time>
      </trkpt>
      <trkpt lat="46.84161" lon="6.55639">
        <ele>1238.1999511719</ele>
        <time>2014-06-05T16:42:08.000Z</time>
      </trkpt>
      <trkpt lat="46.84136" lon="6.55651">
        <ele>1235.1999511719</ele>
        <time>2014-06-05T16:42:13.000Z</time>
      </trkpt>
      <trkpt lat="46.84112" lon="6.55669">
        <ele>1233.5999755859</ele>
        <time>2014-06-05T16:42:17.000Z</time>
      </trkpt>
      <trkpt lat="46.84104" lon="6.55665">
        <ele>1234.1999511719</ele>
        <time>2014-06-05T16:42:19.000Z</time>
      </trkpt>
      <trkpt lat="46.84082" lon="6.55679">
        <ele>1233.8000488281</ele>
        <time>2014-06-05T16:42:24.000Z</time>
      </trkpt>
      <trkpt lat="46.84077" lon="6.55684">
        <ele>1233.8000488281</ele>
        <time>2014-06-05T16:42:25.000Z</time>
      </trkpt>
      <trkpt lat="46.84065" lon="6.557">
        <ele>1232.5999755859</ele>
        <time>2014-06-05T16:42:30.000Z</time>
      </trkpt>
      <trkpt lat="46.84064" lon="6.55705">
        <ele>1232.1999511719</ele>
        <time>2014-06-05T16:42:31.000Z</time>
      </trkpt>
      <trkpt lat="46.84063" lon="6.55724">
        <ele>1231</ele>
        <time>2014-06-05T16:42:34.000Z</time>
      </trkpt>
      <trkpt lat="46.84058" lon="6.55755">
        <ele>1228</ele>
        <time>2014-06-05T16:42:39.000Z</time>
      </trkpt>
      <trkpt lat="46.84052" lon="6.55774">
        <ele>1225.5999755859</ele>
        <time>2014-06-05T16:42:42.000Z</time>
      </trkpt>
      <trkpt lat="46.84044" lon="6.55803">
        <ele>1222.1999511719</ele>
        <time>2014-06-05T16:42:48.000Z</time>
      </trkpt>
      <trkpt lat="46.84041" lon="6.55825">
        <ele>1219.5999755859</ele>
        <time>2014-06-05T16:42:53.000Z</time>
      </trkpt>
      <trkpt lat="46.84033" lon="6.55844">
        <ele>1217.1999511719</ele>
        <time>2014-06-05T16:42:56.000Z</time>
      </trkpt>
      <trkpt lat="46.84029" lon="6.55875">
        <ele>1214</ele>
        <time>2014-06-05T16:43:00.000Z</time>
      </trkpt>
      <trkpt lat="46.84017" lon="6.55891">
        <ele>1212</ele>
        <time>2014-06-05T16:43:05.000Z</time>
      </trkpt>
      <trkpt lat="46.84002" lon="6.55892">
        <ele>1211.4000244141</ele>
        <time>2014-06-05T16:43:08.000Z</time>
      </trkpt>
      <trkpt lat="46.8397" lon="6.55882">
        <ele>1209.4000244141</ele>
        <time>2014-06-05T16:43:15.000Z</time>
      </trkpt>
      <trkpt lat="46.83949" lon="6.55879">
        <ele>1209.4000244141</ele>
        <time>2014-06-05T16:43:20.000Z</time>
      </trkpt>
      <trkpt lat="46.83921" lon="6.55869">
        <ele>1209.4000244141</ele>
        <time>2014-06-05T16:43:29.000Z</time>
      </trkpt>
      <trkpt lat="46.8391" lon="6.55857">
        <ele>1208.8000488281</ele>
        <time>2014-06-05T16:43:34.000Z</time>
      </trkpt>
      <trkpt lat="46.83889" lon="6.55849">
        <ele>1208.8000488281</ele>
        <time>2014-06-05T16:43:39.000Z</time>
      </trkpt>
      <trkpt lat="46.83852" lon="6.55836">
        <ele>1208.5999755859</ele>
        <time>2014-06-05T16:43:46.000Z</time>
      </trkpt>
      <trkpt lat="46.83829" lon="6.55827">
        <ele>1208.4000244141</ele>
        <time>2014-06-05T16:43:50.000Z</time>
      </trkpt>
      <trkpt lat="46.8379" lon="6.55809">
        <ele>1207</ele>
        <time>2014-06-05T16:43:57.000Z</time>
      </trkpt>
      <trkpt lat="46.83775" lon="6.55801">
        <ele>1206.1999511719</ele>
        <time>2014-06-05T16:44:00.000Z</time>
      </trkpt>
      <trkpt lat="46.83754" lon="6.55793">
        <ele>1205.4000244141</ele>
        <time>2014-06-05T16:44:04.000Z</time>
      </trkpt>
      <trkpt lat="46.83723" lon="6.5578">
        <ele>1204.5999755859</ele>
        <time>2014-06-05T16:44:11.000Z</time>
      </trkpt>
      <trkpt lat="46.83694" lon="6.55766">
        <ele>1204.1999511719</ele>
        <time>2014-06-05T16:44:17.000Z</time>
      </trkpt>
      <trkpt lat="46.83663" lon="6.55751">
        <ele>1203.8000488281</ele>
        <time>2014-06-05T16:44:24.000Z</time>
      </trkpt>
      <trkpt lat="46.83648" lon="6.55735">
        <ele>1202.5999755859</ele>
        <time>2014-06-05T16:44:28.000Z</time>
      </trkpt>
      <trkpt lat="46.83637" lon="6.55714">
        <ele>1201.1999511719</ele>
        <time>2014-06-05T16:44:31.000Z</time>
      </trkpt>
      <trkpt lat="46.83632" lon="6.55692">
        <ele>1200</ele>
        <time>2014-06-05T16:44:34.000Z</time>
      </trkpt>
      <trkpt lat="46.83636" lon="6.55642">
        <ele>1199</ele>
        <time>2014-06-05T16:44:40.000Z</time>
      </trkpt>
      <trkpt lat="46.83622" lon="6.55606">
        <ele>1198.4000244141</ele>
        <time>2014-06-05T16:44:45.000Z</time>
      </trkpt>
      <trkpt lat="46.83586" lon="6.55564">
        <ele>1196.8000488281</ele>
        <time>2014-06-05T16:44:51.000Z</time>
      </trkpt>
      <trkpt lat="46.83558" lon="6.55539">
        <ele>1196.1999511719</ele>
        <time>2014-06-05T16:44:55.000Z</time>
      </trkpt>
      <trkpt lat="46.83527" lon="6.55515">
        <ele>1195.1999511719</ele>
        <time>2014-06-05T16:45:00.000Z</time>
      </trkpt>
      <trkpt lat="46.83503" lon="6.55495">
        <ele>1194.4000244141</ele>
        <time>2014-06-05T16:45:05.000Z</time>
      </trkpt>
      <trkpt lat="46.83499" lon="6.55491">
        <ele>1194.4000244141</ele>
        <time>2014-06-05T16:45:06.000Z</time>
      </trkpt>
      <trkpt lat="46.83464" lon="6.55466">
        <ele>1192.8000488281</ele>
        <time>2014-06-05T16:45:13.000Z</time>
      </trkpt>
      <trkpt lat="46.83451" lon="6.55456">
        <ele>1192.1999511719</ele>
        <time>2014-06-05T16:45:15.000Z</time>
      </trkpt>
      <trkpt lat="46.83432" lon="6.55438">
        <ele>1191.4000244141</ele>
        <time>2014-06-05T16:45:18.000Z</time>
      </trkpt>
      <trkpt lat="46.83419" lon="6.5541">
        <ele>1191.8000488281</ele>
        <time>2014-06-05T16:45:22.000Z</time>
      </trkpt>
      <trkpt lat="46.83416" lon="6.55404">
        <ele>1192</ele>
        <time>2014-06-05T16:45:23.000Z</time>
      </trkpt>
      <trkpt lat="46.83408" lon="6.55373">
        <ele>1193.4000244141</ele>
        <time>2014-06-05T16:45:28.000Z</time>
      </trkpt>
      <trkpt lat="46.83393" lon="6.55347">
        <ele>1193.4000244141</ele>
        <time>2014-06-05T16:45:33.000Z</time>
      </trkpt>
      <trkpt lat="46.83386" lon="6.55332">
        <ele>1193.5999755859</ele>
        <time>2014-06-05T16:45:36.000Z</time>
      </trkpt>
      <trkpt lat="46.83379" lon="6.5529">
        <ele>1195.1999511719</ele>
        <time>2014-06-05T16:45:44.000Z</time>
      </trkpt>
      <trkpt lat="46.83378" lon="6.55264">
        <ele>1195.5999755859</ele>
        <time>2014-06-05T16:45:49.000Z</time>
      </trkpt>
      <trkpt lat="46.83383" lon="6.55236">
        <ele>1196.8000488281</ele>
        <time>2014-06-05T16:45:54.000Z</time>
      </trkpt>
      <trkpt lat="46.83385" lon="6.55212">
        <ele>1198.4000244141</ele>
        <time>2014-06-05T16:45:58.000Z</time>
      </trkpt>
      <trkpt lat="46.83378" lon="6.55188">
        <ele>1198.8000488281</ele>
        <time>2014-06-05T16:46:02.000Z</time>
      </trkpt>
      <trkpt lat="46.83362" lon="6.55164">
        <ele>1198.8000488281</ele>
        <time>2014-06-05T16:46:07.000Z</time>
      </trkpt>
      <trkpt lat="46.83354" lon="6.55152">
        <ele>1198.5999755859</ele>
        <time>2014-06-05T16:46:10.000Z</time>
      </trkpt>
      <trkpt lat="46.83336" lon="6.55133">
        <ele>1198.1999511719</ele>
        <time>2014-06-05T16:46:18.000Z</time>
      </trkpt>
      <trkpt lat="46.83321" lon="6.55116">
        <ele>1198</ele>
        <time>2014-06-05T16:46:23.000Z</time>
      </trkpt>
      <trkpt lat="46.83296" lon="6.55088">
        <ele>1198.1999511719</ele>
        <time>2014-06-05T16:46:30.000Z</time>
      </trkpt>
      <trkpt lat="46.83279" lon="6.55068">
        <ele>1198.4000244141</ele>
        <time>2014-06-05T16:46:35.000Z</time>
      </trkpt>
      <trkpt lat="46.83259" lon="6.55052">
        <ele>1198</ele>
        <time>2014-06-05T16:46:40.000Z</time>
      </trkpt>
      <trkpt lat="46.83247" lon="6.55048">
        <ele>1197.4000244141</ele>
        <time>2014-06-05T16:46:43.000Z</time>
      </trkpt>
      <trkpt lat="46.8323" lon="6.55035">
        <ele>1196.4000244141</ele>
        <time>2014-06-05T16:46:47.000Z</time>
      </trkpt>
      <trkpt lat="46.8322" lon="6.55025">
        <ele>1195.8000488281</ele>
        <time>2014-06-05T16:46:49.000Z</time>
      </trkpt>
      <trkpt lat="46.83202" lon="6.55003">
        <ele>1194.5999755859</ele>
        <time>2014-06-05T16:46:53.000Z</time>
      </trkpt>
      <trkpt lat="46.83191" lon="6.54973">
        <ele>1195</ele>
        <time>2014-06-05T16:46:57.000Z</time>
      </trkpt>
      <trkpt lat="46.83189" lon="6.54958">
        <ele>1195.5999755859</ele>
        <time>2014-06-05T16:46:59.000Z</time>
      </trkpt>
      <trkpt lat="46.83178" lon="6.54934">
        <ele>1195.5999755859</ele>
        <time>2014-06-05T16:47:03.000Z</time>
      </trkpt>
      <trkpt lat="46.8315" lon="6.54908">
        <ele>1194.1999511719</ele>
        <time>2014-06-05T16:47:09.000Z</time>
      </trkpt>
      <trkpt lat="46.83139" lon="6.54891">
        <ele>1194.8000488281</ele>
        <time>2014-06-05T16:47:12.000Z</time>
      </trkpt>
      <trkpt lat="46.83126" lon="6.54846">
        <ele>1196.4000244141</ele>
        <time>2014-06-05T16:47:18.000Z</time>
      </trkpt>
      <trkpt lat="46.83122" lon="6.54821">
        <ele>1197</ele>
        <time>2014-06-05T16:47:22.000Z</time>
      </trkpt>
      <trkpt lat="46.83122" lon="6.54796">
        <ele>1198.1999511719</ele>
        <time>2014-06-05T16:47:26.000Z</time>
      </trkpt>
      <trkpt lat="46.83125" lon="6.5478">
        <ele>1198.8000488281</ele>
        <time>2014-06-05T16:47:29.000Z</time>
      </trkpt>
      <trkpt lat="46.83126" lon="6.54762">
        <ele>1198.8000488281</ele>
        <time>2014-06-05T16:47:33.000Z</time>
      </trkpt>
      <trkpt lat="46.83117" lon="6.5474">
        <ele>1199.4000244141</ele>
        <time>2014-06-05T16:47:39.000Z</time>
      </trkpt>
      <trkpt lat="46.83111" lon="6.54716">
        <ele>1199.5999755859</ele>
        <time>2014-06-05T16:47:44.000Z</time>
      </trkpt>
      <trkpt lat="46.83101" lon="6.54684">
        <ele>1200.1999511719</ele>
        <time>2014-06-05T16:47:50.000Z</time>
      </trkpt>
      <trkpt lat="46.83092" lon="6.54654">
        <ele>1201</ele>
        <time>2014-06-05T16:47:55.000Z</time>
      </trkpt>
      <trkpt lat="46.83085" lon="6.54624">
        <ele>1202</ele>
        <time>2014-06-05T16:48:01.000Z</time>
      </trkpt>
      <trkpt lat="46.83077" lon="6.54596">
        <ele>1203</ele>
        <time>2014-06-05T16:48:06.000Z</time>
      </trkpt>
      <trkpt lat="46.83072" lon="6.54577">
        <ele>1203.8000488281</ele>
        <time>2014-06-05T16:48:09.000Z</time>
      </trkpt>
      <trkpt lat="46.83057" lon="6.54532">
        <ele>1204.1999511719</ele>
        <time>2014-06-05T16:48:16.000Z</time>
      </trkpt>
      <trkpt lat="46.83048" lon="6.54508">
        <ele>1204.1999511719</ele>
        <time>2014-06-05T16:48:20.000Z</time>
      </trkpt>
      <trkpt lat="46.83039" lon="6.54475">
        <ele>1204.1999511719</ele>
        <time>2014-06-05T16:48:25.000Z</time>
      </trkpt>
      <trkpt lat="46.83033" lon="6.54455">
        <ele>1203.8000488281</ele>
        <time>2014-06-05T16:48:28.000Z</time>
      </trkpt>
      <trkpt lat="46.83015" lon="6.54401">
        <ele>1202.4000244141</ele>
        <time>2014-06-05T16:48:36.000Z</time>
      </trkpt>
      <trkpt lat="46.83012" lon="6.54388">
        <ele>1201.8000488281</ele>
        <time>2014-06-05T16:48:38.000Z</time>
      </trkpt>
      <trkpt lat="46.83009" lon="6.54363">
        <ele>1200.8000488281</ele>
        <time>2014-06-05T16:48:42.000Z</time>
      </trkpt>
      <trkpt lat="46.83007" lon="6.54351">
        <ele>1200.1999511719</ele>
        <time>2014-06-05T16:48:44.000Z</time>
      </trkpt>
      <trkpt lat="46.83003" lon="6.5434">
        <ele>1199.8000488281</ele>
        <time>2014-06-05T16:48:46.000Z</time>
      </trkpt>
      <trkpt lat="46.82999" lon="6.54329">
        <ele>1199.4000244141</ele>
        <time>2014-06-05T16:48:51.000Z</time>
      </trkpt>
      <trkpt lat="46.83" lon="6.54325">
        <ele>1199.1999511719</ele>
        <time>2014-06-05T16:48:53.000Z</time>
      </trkpt>
      <trkpt lat="46.82998" lon="6.54296">
        <ele>1198.8000488281</ele>
        <time>2014-06-05T16:48:59.000Z</time>
      </trkpt>
      <trkpt lat="46.82996" lon="6.54264">
        <ele>1198.4000244141</ele>
        <time>2014-06-05T16:49:04.000Z</time>
      </trkpt>
      <trkpt lat="46.82995" lon="6.54256">
        <ele>1198.1999511719</ele>
        <time>2014-06-05T16:49:07.000Z</time>
      </trkpt>
      <trkpt lat="46.82997" lon="6.54252">
        <ele>1198.1999511719</ele>
        <time>2014-06-05T16:49:12.000Z</time>
      </trkpt>
      <trkpt lat="46.83006" lon="6.54224">
        <ele>1198.4000244141</ele>
        <time>2014-06-05T16:49:18.000Z</time>
      </trkpt>
      <trkpt lat="46.8301" lon="6.54198">
        <ele>1197.8000488281</ele>
        <time>2014-06-05T16:49:23.000Z</time>
      </trkpt>
      <trkpt lat="46.83013" lon="6.54171">
        <ele>1197.5999755859</ele>
        <time>2014-06-05T16:49:28.000Z</time>
      </trkpt>
      <trkpt lat="46.8301" lon="6.54154">
        <ele>1197.8000488281</ele>
        <time>2014-06-05T16:49:31.000Z</time>
      </trkpt>
      <trkpt lat="46.82996" lon="6.54121">
        <ele>1196.1999511719</ele>
        <time>2014-06-05T16:49:36.000Z</time>
      </trkpt>
      <trkpt lat="46.82983" lon="6.54098">
        <ele>1195</ele>
        <time>2014-06-05T16:49:39.000Z</time>
      </trkpt>
      <trkpt lat="46.82974" lon="6.5405">
        <ele>1194.1999511719</ele>
        <time>2014-06-05T16:49:44.000Z</time>
      </trkpt>
      <trkpt lat="46.82968" lon="6.54022">
        <ele>1194.4000244141</ele>
        <time>2014-06-05T16:49:47.000Z</time>
      </trkpt>
      <trkpt lat="46.82953" lon="6.53971">
        <ele>1194</ele>
        <time>2014-06-05T16:49:53.000Z</time>
      </trkpt>
      <trkpt lat="46.82938" lon="6.53911">
        <ele>1193.5999755859</ele>
        <time>2014-06-05T16:50:00.000Z</time>
      </trkpt>
      <trkpt lat="46.82927" lon="6.5387">
        <ele>1193.4000244141</ele>
        <time>2014-06-05T16:50:06.000Z</time>
      </trkpt>
      <trkpt lat="46.82916" lon="6.53834">
        <ele>1192.8000488281</ele>
        <time>2014-06-05T16:50:12.000Z</time>
      </trkpt>
      <trkpt lat="46.82908" lon="6.538">
        <ele>1193</ele>
        <time>2014-06-05T16:50:18.000Z</time>
      </trkpt>
      <trkpt lat="46.82902" lon="6.53773">
        <ele>1193</ele>
        <time>2014-06-05T16:50:22.000Z</time>
      </trkpt>
      <trkpt lat="46.82899" lon="6.53749">
        <ele>1193.5999755859</ele>
        <time>2014-06-05T16:50:26.000Z</time>
      </trkpt>
      <trkpt lat="46.82897" lon="6.53737">
        <ele>1193.8000488281</ele>
        <time>2014-06-05T16:50:28.000Z</time>
      </trkpt>
      <trkpt lat="46.82885" lon="6.53709">
        <ele>1193</ele>
        <time>2014-06-05T16:50:33.000Z</time>
      </trkpt>
      <trkpt lat="46.8288" lon="6.53683">
        <ele>1193.8000488281</ele>
        <time>2014-06-05T16:50:37.000Z</time>
      </trkpt>
      <trkpt lat="46.82877" lon="6.53667">
        <ele>1194.1999511719</ele>
        <time>2014-06-05T16:50:39.000Z</time>
      </trkpt>
      <trkpt lat="46.82874" lon="6.53634">
        <ele>1195.4000244141</ele>
        <time>2014-06-05T16:50:43.000Z</time>
      </trkpt>
      <trkpt lat="46.82875" lon="6.53609">
        <ele>1196.8000488281</ele>
        <time>2014-06-05T16:50:48.000Z</time>
      </trkpt>
      <trkpt lat="46.82876" lon="6.53605">
        <ele>1197.1999511719</ele>
        <time>2014-06-05T16:50:49.000Z</time>
      </trkpt>
      <trkpt lat="46.82877" lon="6.53585">
        <ele>1199</ele>
        <time>2014-06-05T16:50:54.000Z</time>
      </trkpt>
      <trkpt lat="46.82877" lon="6.5356">
        <ele>1200.1999511719</ele>
        <time>2014-06-05T16:51:01.000Z</time>
      </trkpt>
      <trkpt lat="46.82879" lon="6.5354">
        <ele>1201.4000244141</ele>
        <time>2014-06-05T16:51:08.000Z</time>
      </trkpt>
      <trkpt lat="46.82882" lon="6.53527">
        <ele>1203.1999511719</ele>
        <time>2014-06-05T16:51:14.000Z</time>
      </trkpt>
      <trkpt lat="46.82884" lon="6.53507">
        <ele>1205.1999511719</ele>
        <time>2014-06-05T16:51:22.000Z</time>
      </trkpt>
      <trkpt lat="46.82887" lon="6.53493">
        <ele>1206.8000488281</ele>
        <time>2014-06-05T16:51:27.000Z</time>
      </trkpt>
      <trkpt lat="46.82888" lon="6.53485">
        <ele>1207.8000488281</ele>
        <time>2014-06-05T16:51:31.000Z</time>
      </trkpt>
      <trkpt lat="46.82887" lon="6.53479">
        <ele>1208</ele>
        <time>2014-06-05T16:51:34.000Z</time>
      </trkpt>
      <trkpt lat="46.82887" lon="6.53467">
        <ele>1208.8000488281</ele>
        <time>2014-06-05T16:51:39.000Z</time>
      </trkpt>
      <trkpt lat="46.82889" lon="6.53451">
        <ele>1211</ele>
        <time>2014-06-05T16:51:45.000Z</time>
      </trkpt>
      <trkpt lat="46.8289" lon="6.53442">
        <ele>1212.1999511719</ele>
        <time>2014-06-05T16:51:50.000Z</time>
      </trkpt>
      <trkpt lat="46.82892" lon="6.53429">
        <ele>1214</ele>
        <time>2014-06-05T16:51:56.000Z</time>
      </trkpt>
      <trkpt lat="46.82898" lon="6.53415">
        <ele>1217.1999511719</ele>
        <time>2014-06-05T16:52:02.000Z</time>
      </trkpt>
      <trkpt lat="46.82902" lon="6.534">
        <ele>1220</ele>
        <time>2014-06-05T16:52:09.000Z</time>
      </trkpt>
      <trkpt lat="46.82908" lon="6.53382">
        <ele>1222.8000488281</ele>
        <time>2014-06-05T16:52:16.000Z</time>
      </trkpt>
      <trkpt lat="46.82912" lon="6.53366">
        <ele>1225</ele>
        <time>2014-06-05T16:52:23.000Z</time>
      </trkpt>
      <trkpt lat="46.82918" lon="6.53351">
        <ele>1227.8000488281</ele>
        <time>2014-06-05T16:52:30.000Z</time>
      </trkpt>
      <trkpt lat="46.82923" lon="6.53338">
        <ele>1230.5999755859</ele>
        <time>2014-06-05T16:52:37.000Z</time>
      </trkpt>
      <trkpt lat="46.82925" lon="6.53322">
        <ele>1232.1999511719</ele>
        <time>2014-06-05T16:52:44.000Z</time>
      </trkpt>
      <trkpt lat="46.82925" lon="6.53316">
        <ele>1232.4000244141</ele>
        <time>2014-06-05T16:52:48.000Z</time>
      </trkpt>
      <trkpt lat="46.82929" lon="6.53305">
        <ele>1234.4000244141</ele>
        <time>2014-06-05T16:52:53.000Z</time>
      </trkpt>
      <trkpt lat="46.82931" lon="6.53303">
        <ele>1235.4000244141</ele>
        <time>2014-06-05T16:52:55.000Z</time>
      </trkpt>
      <trkpt lat="46.82931" lon="6.53307">
        <ele>1235</ele>
        <time>2014-06-05T16:53:01.000Z</time>
      </trkpt>
      <trkpt lat="46.82928" lon="6.53306">
        <ele>1233.8000488281</ele>
        <time>2014-06-05T16:53:08.000Z</time>
      </trkpt>
      <trkpt lat="46.82928" lon="6.53305">
        <ele>1233.8000488281</ele>
        <time>2014-06-05T16:53:21.000Z</time>
      </trkpt>
      <trkpt lat="46.82924" lon="6.53304">
        <ele>1232.5999755859</ele>
        <time>2014-06-05T16:53:29.000Z</time>
      </trkpt>
      <trkpt lat="46.82928" lon="6.53304">
        <ele>1233.8000488281</ele>
        <time>2014-06-05T16:53:50.000Z</time>
      </trkpt>
      <trkpt lat="46.82932" lon="6.53319">
        <ele>1235.1999511719</ele>
        <time>2014-06-05T16:53:56.000Z</time>
      </trkpt>
      <trkpt lat="46.82944" lon="6.53332">
        <ele>1239</ele>
        <time>2014-06-05T16:54:01.000Z</time>
      </trkpt>
      <trkpt lat="46.82953" lon="6.53341">
        <ele>1241.8000488281</ele>
        <time>2014-06-05T16:54:05.000Z</time>
      </trkpt>
      <trkpt lat="46.82957" lon="6.53355">
        <ele>1242.4000244141</ele>
        <time>2014-06-05T16:54:09.000Z</time>
      </trkpt>
      <trkpt lat="46.82965" lon="6.53372">
        <ele>1244.4000244141</ele>
        <time>2014-06-05T16:54:14.000Z</time>
      </trkpt>
      <trkpt lat="46.82975" lon="6.53391">
        <ele>1247.4000244141</ele>
        <time>2014-06-05T16:54:20.000Z</time>
      </trkpt>
      <trkpt lat="46.82977" lon="6.534">
        <ele>1247.4000244141</ele>
        <time>2014-06-05T16:54:23.000Z</time>
      </trkpt>
      <trkpt lat="46.82985" lon="6.53416">
        <ele>1249.4000244141</ele>
        <time>2014-06-05T16:54:29.000Z</time>
      </trkpt>
      <trkpt lat="46.82987" lon="6.53418">
        <ele>1250</ele>
        <time>2014-06-05T16:54:30.000Z</time>
      </trkpt>
      <trkpt lat="46.82992" lon="6.53429">
        <ele>1250.5999755859</ele>
        <time>2014-06-05T16:54:36.000Z</time>
      </trkpt>
      <trkpt lat="46.82994" lon="6.53437">
        <ele>1250.8000488281</ele>
        <time>2014-06-05T16:54:39.000Z</time>
      </trkpt>
      <trkpt lat="46.82997" lon="6.53446">
        <ele>1251.4000244141</ele>
        <time>2014-06-05T16:54:43.000Z</time>
      </trkpt>
      <trkpt lat="46.82997" lon="6.53452">
        <ele>1250.5999755859</ele>
        <time>2014-06-05T16:54:49.000Z</time>
      </trkpt>
      <trkpt lat="46.82997" lon="6.53457">
        <ele>1250.4000244141</ele>
        <time>2014-06-05T16:55:10.000Z</time>
      </trkpt>
      <trkpt lat="46.82997" lon="6.53481">
        <ele>1248.5999755859</ele>
        <time>2014-06-05T16:55:16.000Z</time>
      </trkpt>
      <trkpt lat="46.82996" lon="6.53496">
        <ele>1246.8000488281</ele>
        <time>2014-06-05T16:55:19.000Z</time>
      </trkpt>
      <trkpt lat="46.83001" lon="6.53525">
        <ele>1246.4000244141</ele>
        <time>2014-06-05T16:55:23.000Z</time>
      </trkpt>
      <trkpt lat="46.83001" lon="6.53568">
        <ele>1242.5999755859</ele>
        <time>2014-06-05T16:55:27.000Z</time>
      </trkpt>
      <trkpt lat="46.82999" lon="6.5359">
        <ele>1238.8000488281</ele>
        <time>2014-06-05T16:55:30.000Z</time>
      </trkpt>
      <trkpt lat="46.82998" lon="6.53601">
        <ele>1236.5999755859</ele>
        <time>2014-06-05T16:55:32.000Z</time>
      </trkpt>
      <trkpt lat="46.83005" lon="6.53626">
        <ele>1236</ele>
        <time>2014-06-05T16:55:37.000Z</time>
      </trkpt>
      <trkpt lat="46.83019" lon="6.5365">
        <ele>1238</ele>
        <time>2014-06-05T16:55:44.000Z</time>
      </trkpt>
      <trkpt lat="46.8303" lon="6.5366">
        <ele>1240.4000244141</ele>
        <time>2014-06-05T16:55:48.000Z</time>
      </trkpt>
      <trkpt lat="46.83034" lon="6.5367">
        <ele>1240.1999511719</ele>
        <time>2014-06-05T16:55:51.000Z</time>
      </trkpt>
      <trkpt lat="46.8304" lon="6.53683">
        <ele>1240.4000244141</ele>
        <time>2014-06-05T16:55:56.000Z</time>
      </trkpt>
      <trkpt lat="46.83044" lon="6.53689">
        <ele>1241.1999511719</ele>
        <time>2014-06-05T16:55:59.000Z</time>
      </trkpt>
      <trkpt lat="46.83046" lon="6.53712">
        <ele>1238</ele>
        <time>2014-06-05T16:56:05.000Z</time>
      </trkpt>
      <trkpt lat="46.83056" lon="6.53723">
        <ele>1239.8000488281</ele>
        <time>2014-06-05T16:56:08.000Z</time>
      </trkpt>
      <trkpt lat="46.83055" lon="6.53748">
        <ele>1236.8000488281</ele>
        <time>2014-06-05T16:56:11.000Z</time>
      </trkpt>
      <trkpt lat="46.83053" lon="6.53751">
        <ele>1235.5999755859</ele>
        <time>2014-06-05T16:56:14.000Z</time>
      </trkpt>
      <trkpt lat="46.83033" lon="6.53775">
        <ele>1226.5999755859</ele>
        <time>2014-06-05T16:56:18.000Z</time>
      </trkpt>
      <trkpt lat="46.83031" lon="6.5379">
        <ele>1223.5999755859</ele>
        <time>2014-06-05T16:56:20.000Z</time>
      </trkpt>
      <trkpt lat="46.83038" lon="6.53809">
        <ele>1223.5999755859</ele>
        <time>2014-06-05T16:56:26.000Z</time>
      </trkpt>
      <trkpt lat="46.83046" lon="6.5382">
        <ele>1225.4000244141</ele>
        <time>2014-06-05T16:56:30.000Z</time>
      </trkpt>
      <trkpt lat="46.83052" lon="6.5383">
        <ele>1226.8000488281</ele>
        <time>2014-06-05T16:56:35.000Z</time>
      </trkpt>
      <trkpt lat="46.83052" lon="6.5386">
        <ele>1223.8000488281</ele>
        <time>2014-06-05T16:56:40.000Z</time>
      </trkpt>
      <trkpt lat="46.83057" lon="6.53871">
        <ele>1224.4000244141</ele>
        <time>2014-06-05T16:56:43.000Z</time>
      </trkpt>
      <trkpt lat="46.83068" lon="6.53883">
        <ele>1227.4000244141</ele>
        <time>2014-06-05T16:56:48.000Z</time>
      </trkpt>
      <trkpt lat="46.83084" lon="6.53896">
        <ele>1231.1999511719</ele>
        <time>2014-06-05T16:56:56.000Z</time>
      </trkpt>
      <trkpt lat="46.83093" lon="6.53901">
        <ele>1234</ele>
        <time>2014-06-05T16:57:01.000Z</time>
      </trkpt>
      <trkpt lat="46.83097" lon="6.53902">
        <ele>1235.1999511719</ele>
        <time>2014-06-05T16:57:05.000Z</time>
      </trkpt>
      <trkpt lat="46.83102" lon="6.53905">
        <ele>1236.1999511719</ele>
        <time>2014-06-05T16:57:10.000Z</time>
      </trkpt>
      <trkpt lat="46.83105" lon="6.53905">
        <ele>1237.4000244141</ele>
        <time>2014-06-05T16:57:12.000Z</time>
      </trkpt>
      <trkpt lat="46.83111" lon="6.53908">
        <ele>1239</ele>
        <time>2014-06-05T16:57:16.000Z</time>
      </trkpt>
      <trkpt lat="46.83113" lon="6.53914">
        <ele>1238.5999755859</ele>
        <time>2014-06-05T16:57:21.000Z</time>
      </trkpt>
      <trkpt lat="46.83112" lon="6.5392">
        <ele>1237.4000244141</ele>
        <time>2014-06-05T16:57:23.000Z</time>
      </trkpt>
      <trkpt lat="46.83122" lon="6.53934">
        <ele>1238.5999755859</ele>
        <time>2014-06-05T16:57:29.000Z</time>
      </trkpt>
      <trkpt lat="46.83127" lon="6.53939">
        <ele>1239.4000244141</ele>
        <time>2014-06-05T16:57:32.000Z</time>
      </trkpt>
      <trkpt lat="46.83134" lon="6.53956">
        <ele>1239</ele>
        <time>2014-06-05T16:57:37.000Z</time>
      </trkpt>
      <trkpt lat="46.83133" lon="6.53971">
        <ele>1237.1999511719</ele>
        <time>2014-06-05T16:57:41.000Z</time>
      </trkpt>
      <trkpt lat="46.83131" lon="6.53973">
        <ele>1236.4000244141</ele>
        <time>2014-06-05T16:57:42.000Z</time>
      </trkpt>
      <trkpt lat="46.83124" lon="6.53963">
        <ele>1235.4000244141</ele>
        <time>2014-06-05T16:57:46.000Z</time>
      </trkpt>
      <trkpt lat="46.83114" lon="6.53958">
        <ele>1233.1999511719</ele>
        <time>2014-06-05T16:57:51.000Z</time>
      </trkpt>
      <trkpt lat="46.83113" lon="6.53964">
        <ele>1232.4000244141</ele>
        <time>2014-06-05T16:57:53.000Z</time>
      </trkpt>
      <trkpt lat="46.83107" lon="6.53964">
        <ele>1230.8000488281</ele>
        <time>2014-06-05T16:57:58.000Z</time>
      </trkpt>
      <trkpt lat="46.83101" lon="6.5396">
        <ele>1229.8000488281</ele>
        <time>2014-06-05T16:58:02.000Z</time>
      </trkpt>
      <trkpt lat="46.831" lon="6.53966">
        <ele>1229</ele>
        <time>2014-06-05T16:58:06.000Z</time>
      </trkpt>
      <trkpt lat="46.83101" lon="6.53971">
        <ele>1228.8000488281</ele>
        <time>2014-06-05T16:58:08.000Z</time>
      </trkpt>
      <trkpt lat="46.8309" lon="6.53969">
        <ele>1226</ele>
        <time>2014-06-05T16:58:14.000Z</time>
      </trkpt>
      <trkpt lat="46.83081" lon="6.5397">
        <ele>1223.4000244141</ele>
        <time>2014-06-05T16:58:19.000Z</time>
      </trkpt>
      <trkpt lat="46.83077" lon="6.5398">
        <ele>1221.5999755859</ele>
        <time>2014-06-05T16:58:23.000Z</time>
      </trkpt>
      <trkpt lat="46.83074" lon="6.54027">
        <ele>1216</ele>
        <time>2014-06-05T16:58:28.000Z</time>
      </trkpt>
      <trkpt lat="46.83073" lon="6.54036">
        <ele>1214.5999755859</ele>
        <time>2014-06-05T16:58:29.000Z</time>
      </trkpt>
      <trkpt lat="46.83064" lon="6.54074">
        <ele>1208.8000488281</ele>
        <time>2014-06-05T16:58:33.000Z</time>
      </trkpt>
      <trkpt lat="46.83056" lon="6.54105">
        <ele>1204.8000488281</ele>
        <time>2014-06-05T16:58:37.000Z</time>
      </trkpt>
      <trkpt lat="46.83057" lon="6.54112">
        <ele>1204.4000244141</ele>
        <time>2014-06-05T16:58:42.000Z</time>
      </trkpt>
      <trkpt lat="46.83058" lon="6.54112">
        <ele>1204.4000244141</ele>
        <time>2014-06-05T16:58:44.000Z</time>
      </trkpt>
      <trkpt lat="46.83059" lon="6.54103">
        <ele>1205.4000244141</ele>
        <time>2014-06-05T17:01:15.000Z</time>
      </trkpt>
      <trkpt lat="46.83059" lon="6.54103">
        <ele>1205.4000244141</ele>
        <time>2014-06-05T17:01:15.000Z</time>
      </trkpt>
      <trkpt lat="46.83059" lon="6.54103">
        <ele>1205.4000244141</ele>
        <time>2014-06-05T17:01:16.000Z</time>
      </trkpt>
      <trkpt lat="46.83059" lon="6.54103">
        <ele>1205.4000244141</ele>
        <time>2014-06-05T17:01:16.000Z</time>
      </trkpt>
      <trkpt lat="46.83054" lon="6.54113">
        <ele>1203.5999755859</ele>
        <time>2014-06-05T17:02:04.000Z</time>
      </trkpt>
      <trkpt lat="46.83043" lon="6.54121">
        <ele>1201</ele>
        <time>2014-06-05T17:02:07.000Z</time>
      </trkpt>
      <trkpt lat="46.83037" lon="6.54122">
        <ele>1200.1999511719</ele>
        <time>2014-06-05T17:02:09.000Z</time>
      </trkpt>
      <trkpt lat="46.8303" lon="6.54107">
        <ele>1199.5999755859</ele>
        <time>2014-06-05T17:02:13.000Z</time>
      </trkpt>
      <trkpt lat="46.83015" lon="6.54098">
        <ele>1198</ele>
        <time>2014-06-05T17:02:18.000Z</time>
      </trkpt>
      <trkpt lat="46.8301" lon="6.54077">
        <ele>1198.4000244141</ele>
        <time>2014-06-05T17:02:21.000Z</time>
      </trkpt>
      <trkpt lat="46.83003" lon="6.54045">
        <ele>1198.1999511719</ele>
        <time>2014-06-05T17:02:26.000Z</time>
      </trkpt>
      <trkpt lat="46.82994" lon="6.54023">
        <ele>1197</ele>
        <time>2014-06-05T17:02:31.000Z</time>
      </trkpt>
      <trkpt lat="46.82987" lon="6.5401">
        <ele>1196.1999511719</ele>
        <time>2014-06-05T17:02:36.000Z</time>
      </trkpt>
      <trkpt lat="46.82986" lon="6.53997">
        <ele>1196.4000244141</ele>
        <time>2014-06-05T17:02:40.000Z</time>
      </trkpt>
      <trkpt lat="46.83003" lon="6.5398">
        <ele>1201</ele>
        <time>2014-06-05T17:02:48.000Z</time>
      </trkpt>
      <trkpt lat="46.83008" lon="6.53976">
        <ele>1202.4000244141</ele>
        <time>2014-06-05T17:02:50.000Z</time>
      </trkpt>
      <trkpt lat="46.83008" lon="6.53962">
        <ele>1203.1999511719</ele>
        <time>2014-06-05T17:02:56.000Z</time>
      </trkpt>
      <trkpt lat="46.83005" lon="6.53943">
        <ele>1202.8000488281</ele>
        <time>2014-06-05T17:03:01.000Z</time>
      </trkpt>
      <trkpt lat="46.83002" lon="6.53923">
        <ele>1203</ele>
        <time>2014-06-05T17:03:07.000Z</time>
      </trkpt>
      <trkpt lat="46.83006" lon="6.53907">
        <ele>1205.1999511719</ele>
        <time>2014-06-05T17:03:12.000Z</time>
      </trkpt>
      <trkpt lat="46.83005" lon="6.53892">
        <ele>1205.8000488281</ele>
        <time>2014-06-05T17:03:17.000Z</time>
      </trkpt>
      <trkpt lat="46.82991" lon="6.53876">
        <ele>1202.1999511719</ele>
        <time>2014-06-05T17:03:22.000Z</time>
      </trkpt>
      <trkpt lat="46.82989" lon="6.53874">
        <ele>1201.5999755859</ele>
        <time>2014-06-05T17:03:23.000Z</time>
      </trkpt>
      <trkpt lat="46.82972" lon="6.53869">
        <ele>1199.1999511719</ele>
        <time>2014-06-05T17:03:28.000Z</time>
      </trkpt>
      <trkpt lat="46.82954" lon="6.5387">
        <ele>1196.4000244141</ele>
        <time>2014-06-05T17:03:31.000Z</time>
      </trkpt>
      <trkpt lat="46.82942" lon="6.53889">
        <ele>1194.5999755859</ele>
        <time>2014-06-05T17:03:34.000Z</time>
      </trkpt>
      <trkpt lat="46.82943" lon="6.53903">
        <ele>1194.4000244141</ele>
        <time>2014-06-05T17:03:36.000Z</time>
      </trkpt>
      <trkpt lat="46.82945" lon="6.53919">
        <ele>1194</ele>
        <time>2014-06-05T17:03:43.000Z</time>
      </trkpt>
    </trkseg>
  </trk>
</gpx>